sensor_id;sensor_type;location;lat;lon;timestamp;pressure;altitude;pressure_sealevel;temperature;humidity
55038;BME280;40937;53.594;10.034;2022-11-15T00:00:35;78601.53;;;-147.20;75.46
55038;BME280;40937;53.594;10.034;2022-11-15T00:03:23;78595.47;;;-147.20;75.32
55038;BME280;40937;53.594;10.034;2022-11-15T00:06:09;78593.44;;;-147.20;75.07
55038;BME280;40937;53.594;10.034;2022-11-15T00:08:54;78597.50;;;-147.20;75.09
55038;BME280;40937;53.594;10.034;2022-11-15T00:11:42;78601.53;;;-147.20;75.25
55038;BME280;40937;53.594;10.034;2022-11-15T00:14:27;78597.50;;;-147.20;75.11
55038;BME280;40937;53.594;10.034;2022-11-15T00:17:13;78589.41;;;-147.20;74.87
55038;BME280;40937;53.594;10.034;2022-11-15T00:19:59;78597.50;;;-147.20;75.04
55038;BME280;40937;53.594;10.034;2022-11-15T00:22:45;78609.59;;;-147.20;75.44
55038;BME280;40937;53.594;10.034;2022-11-15T00:25:31;78599.50;;;-147.20;75.28
55038;BME280;40937;53.594;10.034;2022-11-15T00:28:16;78607.59;;;-147.20;75.56
55038;BME280;40937;53.594;10.034;2022-11-15T00:31:02;78599.50;;;-147.20;75.25
55038;BME280;40937;53.594;10.034;2022-11-15T00:33:48;78617.69;;;-147.20;76.13
55038;BME280;40937;53.594;10.034;2022-11-15T00:36:34;78619.69;;;-147.20;76.05
55038;BME280;40937;53.594;10.034;2022-11-15T00:39:20;78611.63;;;-147.20;76.32
55038;BME280;40937;53.594;10.034;2022-11-15T00:42:05;78609.59;;;-147.20;76.26
55038;BME280;40937;53.594;10.034;2022-11-15T00:44:50;78611.63;;;-147.20;75.99
55038;BME280;40937;53.594;10.034;2022-11-15T00:47:36;78611.63;;;-147.20;76.01
55038;BME280;40937;53.594;10.034;2022-11-15T00:50:21;78613.66;;;-147.20;76.13
55038;BME280;40937;53.594;10.034;2022-11-15T00:53:09;78613.66;;;-147.20;76.21
55038;BME280;40937;53.594;10.034;2022-11-15T00:55:54;78619.69;;;-147.20;76.11
55038;BME280;40937;53.594;10.034;2022-11-15T00:58:40;78621.72;;;-147.20;76.37
55038;BME280;40937;53.594;10.034;2022-11-15T01:01:25;78627.78;;;-147.20;76.35
55038;BME280;40937;53.594;10.034;2022-11-15T01:04:10;78621.72;;;-147.20;76.30
55038;BME280;40937;53.594;10.034;2022-11-15T01:06:55;78617.69;;;-147.20;76.21
55038;BME280;40937;53.594;10.034;2022-11-15T01:09:42;78611.63;;;-147.20;76.26
55038;BME280;40937;53.594;10.034;2022-11-15T01:12:27;78603.56;;;-147.20;76.27
55038;BME280;40937;53.594;10.034;2022-11-15T01:15:13;78603.56;;;-147.20;76.18
55038;BME280;40937;53.594;10.034;2022-11-15T01:17:58;78601.53;;;-147.20;76.33
55038;BME280;40937;53.594;10.034;2022-11-15T01:20:43;78599.50;;;-147.20;76.30
55038;BME280;40937;53.594;10.034;2022-11-15T01:23:28;78599.50;;;-147.20;76.08
55038;BME280;40937;53.594;10.034;2022-11-15T01:26:15;78593.44;;;-147.20;76.04
55038;BME280;40937;53.594;10.034;2022-11-15T01:29:00;78597.50;;;-147.20;76.13
55038;BME280;40937;53.594;10.034;2022-11-15T01:31:46;78593.44;;;-147.20;75.99
55038;BME280;40937;53.594;10.034;2022-11-15T01:34:31;78597.50;;;-147.20;76.09
55038;BME280;40937;53.594;10.034;2022-11-15T01:37:17;78603.56;;;-147.20;76.15
55038;BME280;40937;53.594;10.034;2022-11-15T01:40:03;78597.50;;;-147.20;76.29
55038;BME280;40937;53.594;10.034;2022-11-15T01:42:50;78593.44;;;-147.20;76.13
55038;BME280;40937;53.594;10.034;2022-11-15T01:45:35;78601.53;;;-147.20;76.21
55038;BME280;40937;53.594;10.034;2022-11-15T01:48:24;78583.34;;;-147.20;75.92
55038;BME280;40937;53.594;10.034;2022-11-15T01:51:13;78593.44;;;-147.20;75.91
55038;BME280;40937;53.594;10.034;2022-11-15T01:54:03;78607.59;;;-147.20;76.00
55038;BME280;40937;53.594;10.034;2022-11-15T01:56:56;78605.56;;;-147.20;76.04
55038;BME280;40937;53.594;10.034;2022-11-15T01:59:45;78595.47;;;-147.20;76.21
55038;BME280;40937;53.594;10.034;2022-11-15T02:02:37;78591.44;;;-147.20;76.21
55038;BME280;40937;53.594;10.034;2022-11-15T02:05:26;78579.31;;;-147.20;76.01
55038;BME280;40937;53.594;10.034;2022-11-15T02:08:11;78583.34;;;-147.20;75.96
55038;BME280;40937;53.594;10.034;2022-11-15T02:11:07;78581.34;;;-147.20;76.11
55038;BME280;40937;53.594;10.034;2022-11-15T02:13:52;78587.38;;;-147.20;76.11
55038;BME280;40937;53.594;10.034;2022-11-15T02:16:47;78587.38;;;-147.20;76.18
55038;BME280;40937;53.594;10.034;2022-11-15T02:23:14;78593.44;;;-147.20;76.39
55038;BME280;40937;53.594;10.034;2022-11-15T02:26:25;78601.53;;;-147.20;76.37
55038;BME280;40937;53.594;10.034;2022-11-15T02:29:23;78599.50;;;-147.20;76.30
55038;BME280;40937;53.594;10.034;2022-11-15T02:32:18;78603.56;;;-147.20;76.44
55038;BME280;40937;53.594;10.034;2022-11-15T02:35:14;78595.47;;;-147.20;76.58
55038;BME280;40937;53.594;10.034;2022-11-15T02:38:06;78591.44;;;-147.20;76.62
55038;BME280;40937;53.594;10.034;2022-11-15T02:40:57;78591.44;;;-147.20;76.62
55038;BME280;40937;53.594;10.034;2022-11-15T02:43:47;78587.38;;;-147.20;76.65
55038;BME280;40937;53.594;10.034;2022-11-15T02:46:47;78591.44;;;-147.20;76.74
55038;BME280;40937;53.594;10.034;2022-11-15T02:49:56;78601.53;;;-147.20;76.71
55038;BME280;40937;53.594;10.034;2022-11-15T02:52:45;78599.50;;;-147.20;76.66
55038;BME280;40937;53.594;10.034;2022-11-15T02:55:33;78595.47;;;-147.20;76.63
55038;BME280;40937;53.594;10.034;2022-11-15T02:58:35;78597.50;;;-147.20;76.78
55038;BME280;40937;53.594;10.034;2022-11-15T03:01:33;78591.44;;;-147.20;77.11
55038;BME280;40937;53.594;10.034;2022-11-15T03:04:28;78589.41;;;-147.20;76.99
55038;BME280;40937;53.594;10.034;2022-11-15T03:07:24;78585.38;;;-147.20;77.08
55038;BME280;40937;53.594;10.034;2022-11-15T03:10:20;78587.38;;;-147.20;77.01
55038;BME280;40937;53.594;10.034;2022-11-15T03:13:19;78583.34;;;-147.20;77.05
55038;BME280;40937;53.594;10.034;2022-11-15T03:16:09;78579.31;;;-147.20;76.99
55038;BME280;40937;53.594;10.034;2022-11-15T03:18:59;78585.38;;;-147.20;76.96
55038;BME280;40937;53.594;10.034;2022-11-15T03:21:49;78583.34;;;-147.20;76.96
55038;BME280;40937;53.594;10.034;2022-11-15T03:24:37;78585.38;;;-147.20;77.16
55038;BME280;40937;53.594;10.034;2022-11-15T03:27:26;78581.34;;;-147.20;76.90
55038;BME280;40937;53.594;10.034;2022-11-15T03:30:14;78579.31;;;-147.20;76.89
55038;BME280;40937;53.594;10.034;2022-11-15T03:33:00;78585.38;;;-147.20;76.93
55038;BME280;40937;53.594;10.034;2022-11-15T03:35:47;78585.38;;;-147.20;76.94
55038;BME280;40937;53.594;10.034;2022-11-15T03:38:34;78589.41;;;-147.20;76.94
55038;BME280;40937;53.594;10.034;2022-11-15T03:41:24;78575.28;;;-147.20;76.75
55038;BME280;40937;53.594;10.034;2022-11-15T03:44:18;78577.28;;;-147.20;76.86
55038;BME280;40937;53.594;10.034;2022-11-15T03:47:08;78573.25;;;-147.20;77.18
55038;BME280;40937;53.594;10.034;2022-11-15T03:49:59;78561.13;;;-147.20;76.85
55038;BME280;40937;53.594;10.034;2022-11-15T03:52:46;78557.09;;;-147.20;76.82
55038;BME280;40937;53.594;10.034;2022-11-15T03:55:32;78557.09;;;-147.20;76.89
55038;BME280;40937;53.594;10.034;2022-11-15T03:58:19;78567.19;;;-147.20;77.11
55038;BME280;40937;53.594;10.034;2022-11-15T04:01:04;78573.25;;;-147.20;77.04
55038;BME280;40937;53.594;10.034;2022-11-15T04:03:49;78575.28;;;-147.20;77.32
55038;BME280;40937;53.594;10.034;2022-11-15T04:06:35;78577.28;;;-147.20;77.48
55038;BME280;40937;53.594;10.034;2022-11-15T04:09:20;78579.31;;;-147.20;77.57
55038;BME280;40937;53.594;10.034;2022-11-15T04:12:05;78575.28;;;-147.20;77.65
55038;BME280;40937;53.594;10.034;2022-11-15T04:14:52;78571.25;;;-147.20;77.94
55038;BME280;40937;53.594;10.034;2022-11-15T04:17:52;78563.16;;;-147.20;77.69
55038;BME280;40937;53.594;10.034;2022-11-15T04:20:37;78561.13;;;-147.20;77.91
55038;BME280;40937;53.594;10.034;2022-11-15T04:23:40;78561.13;;;-147.20;77.55
55038;BME280;40937;53.594;10.034;2022-11-15T04:26:43;78557.09;;;-147.20;77.33
55038;BME280;40937;53.594;10.034;2022-11-15T04:29:28;78565.19;;;-147.20;77.47
55038;BME280;40937;53.594;10.034;2022-11-15T04:32:19;78571.25;;;-147.20;77.50
55038;BME280;40937;53.594;10.034;2022-11-15T04:35:06;78569.22;;;-147.20;77.42
55038;BME280;40937;53.594;10.034;2022-11-15T04:37:52;78561.13;;;-147.20;77.40
55038;BME280;40937;53.594;10.034;2022-11-15T04:40:37;78565.19;;;-147.20;77.52
55038;BME280;40937;53.594;10.034;2022-11-15T04:43:23;78573.25;;;-147.20;77.68
55038;BME280;40937;53.594;10.034;2022-11-15T04:46:08;78561.13;;;-147.20;77.38
55038;BME280;40937;53.594;10.034;2022-11-15T04:48:54;78557.09;;;-147.20;77.04
55038;BME280;40937;53.594;10.034;2022-11-15T04:51:41;78553.06;;;-147.20;76.94
55038;BME280;40937;53.594;10.034;2022-11-15T04:54:26;78540.94;;;-147.20;77.06
55038;BME280;40937;53.594;10.034;2022-11-15T04:57:11;78555.09;;;-147.20;77.32
55038;BME280;40937;53.594;10.034;2022-11-15T04:59:56;78553.06;;;-147.20;77.57
55038;BME280;40937;53.594;10.034;2022-11-15T05:02:41;78538.94;;;-147.20;77.20
55038;BME280;40937;53.594;10.034;2022-11-15T05:05:44;78538.94;;;-147.20;77.26
55038;BME280;40937;53.594;10.034;2022-11-15T05:08:31;78549.03;;;-147.20;77.45
55038;BME280;40937;53.594;10.034;2022-11-15T05:11:16;78544.97;;;-147.20;77.57
55038;BME280;40937;53.594;10.034;2022-11-15T05:14:01;78542.97;;;-147.20;77.33
55038;BME280;40937;53.594;10.034;2022-11-15T05:16:47;78547.00;;;-147.20;77.69
55038;BME280;40937;53.594;10.034;2022-11-15T05:19:32;78540.94;;;-147.20;77.72
55038;BME280;40937;53.594;10.034;2022-11-15T05:22:17;78534.88;;;-147.20;77.34
55038;BME280;40937;53.594;10.034;2022-11-15T05:25:05;78534.88;;;-147.20;77.53
55038;BME280;40937;53.594;10.034;2022-11-15T05:27:50;78520.75;;;-147.20;77.39
55038;BME280;40937;53.594;10.034;2022-11-15T05:30:36;78522.78;;;-147.20;77.40
55038;BME280;40937;53.594;10.034;2022-11-15T05:33:21;78522.78;;;-147.20;77.60
55038;BME280;40937;53.594;10.034;2022-11-15T05:36:09;78518.72;;;-147.20;77.69
55038;BME280;40937;53.594;10.034;2022-11-15T05:38:57;78514.69;;;-147.20;77.41
55038;BME280;40937;53.594;10.034;2022-11-15T05:41:45;78512.69;;;-147.20;77.37
55038;BME280;40937;53.594;10.034;2022-11-15T05:44:33;78520.75;;;-147.20;77.32
55038;BME280;40937;53.594;10.034;2022-11-15T05:47:21;78514.69;;;-147.20;77.24
55038;BME280;40937;53.594;10.034;2022-11-15T05:50:11;78514.69;;;-147.20;77.34
55038;BME280;40937;53.594;10.034;2022-11-15T05:52:58;78502.59;;;-147.20;77.01
55038;BME280;40937;53.594;10.034;2022-11-15T05:55:43;78508.63;;;-147.20;77.17
55038;BME280;40937;53.594;10.034;2022-11-15T05:58:31;78502.59;;;-147.20;77.02
55038;BME280;40937;53.594;10.034;2022-11-15T06:01:17;78500.56;;;-147.20;76.82
55038;BME280;40937;53.594;10.034;2022-11-15T06:04:02;78500.56;;;-147.20;77.05
55038;BME280;40937;53.594;10.034;2022-11-15T06:06:47;78512.69;;;-147.20;77.30
55038;BME280;40937;53.594;10.034;2022-11-15T06:09:33;78508.63;;;-147.20;77.23
55038;BME280;40937;53.594;10.034;2022-11-15T06:12:18;78506.63;;;-147.20;77.06
55038;BME280;40937;53.594;10.034;2022-11-15T06:15:06;78504.59;;;-147.20;77.00
55038;BME280;40937;53.594;10.034;2022-11-15T06:17:51;78508.63;;;-147.20;77.13
55038;BME280;40937;53.594;10.034;2022-11-15T06:20:41;78516.72;;;-147.20;77.63
55038;BME280;40937;53.594;10.034;2022-11-15T06:23:26;78512.69;;;-147.20;77.37
55038;BME280;40937;53.594;10.034;2022-11-15T06:26:11;78508.63;;;-147.20;77.27
55038;BME280;40937;53.594;10.034;2022-11-15T06:28:56;78500.56;;;-147.20;77.07
55038;BME280;40937;53.594;10.034;2022-11-15T06:31:43;78500.56;;;-147.20;77.01
55038;BME280;40937;53.594;10.034;2022-11-15T06:34:28;78506.63;;;-147.20;77.21
55038;BME280;40937;53.594;10.034;2022-11-15T06:37:14;78506.63;;;-147.20;77.46
55038;BME280;40937;53.594;10.034;2022-11-15T06:39:59;78504.59;;;-147.20;77.22
55038;BME280;40937;53.594;10.034;2022-11-15T06:42:44;78498.53;;;-147.20;77.06
55038;BME280;40937;53.594;10.034;2022-11-15T06:45:30;78494.50;;;-147.20;77.13
55038;BME280;40937;53.594;10.034;2022-11-15T06:48:16;78506.63;;;-147.20;77.34
55038;BME280;40937;53.594;10.034;2022-11-15T06:51:03;78490.47;;;-147.20;76.94
55038;BME280;40937;53.594;10.034;2022-11-15T06:53:49;78498.53;;;-147.20;77.19
55038;BME280;40937;53.594;10.034;2022-11-15T06:56:34;78454.13;;;-147.20;83.01
55038;BME280;40937;53.594;10.034;2022-11-15T06:59:19;78375.38;;;-147.20;88.16
55038;BME280;40937;53.594;10.034;2022-11-15T07:02:05;78357.19;;;-147.20;83.81
55038;BME280;40937;53.594;10.034;2022-11-15T07:04:51;78355.16;;;-147.20;79.59
55038;BME280;40937;53.594;10.034;2022-11-15T07:07:37;78379.41;;;-147.20;76.32
55038;BME280;40937;53.594;10.034;2022-11-15T07:10:22;78407.66;;;-147.20;75.60
55038;BME280;40937;53.594;10.034;2022-11-15T07:13:08;78431.91;;;-147.20;75.67
55038;BME280;40937;53.594;10.034;2022-11-15T07:15:54;78431.91;;;-147.20;75.96
55038;BME280;40937;53.594;10.034;2022-11-15T07:18:40;78427.88;;;-147.20;75.30
55038;BME280;40937;53.594;10.034;2022-11-15T07:21:26;78442.00;;;-147.20;75.42
55038;BME280;40937;53.594;10.034;2022-11-15T07:24:11;78437.97;;;-147.20;75.40
55038;BME280;40937;53.594;10.034;2022-11-15T07:26:59;78446.03;;;-147.20;75.70
55038;BME280;40937;53.594;10.034;2022-11-15T07:29:44;78419.78;;;-147.20;80.15
55038;BME280;40937;53.594;10.034;2022-11-15T07:32:29;78417.75;;;-147.20;77.65
55038;BME280;40937;53.594;10.034;2022-11-15T07:35:14;78425.84;;;-147.20;76.91
55038;BME280;40937;53.594;10.034;2022-11-15T07:38:02;78431.91;;;-147.20;76.01
55038;BME280;40937;53.594;10.034;2022-11-15T07:40:55;78417.75;;;-147.20;75.86
55038;BME280;40937;53.594;10.034;2022-11-15T07:43:41;78421.81;;;-147.20;75.52
55038;BME280;40937;53.594;10.034;2022-11-15T07:46:26;78431.91;;;-147.20;75.74
55038;BME280;40937;53.594;10.034;2022-11-15T07:49:11;78427.88;;;-147.20;75.26
55038;BME280;40937;53.594;10.034;2022-11-15T07:51:56;78423.81;;;-147.20;75.29
55038;BME280;40937;53.594;10.034;2022-11-15T07:54:46;78429.88;;;-147.20;75.13
55038;BME280;40937;53.594;10.034;2022-11-15T07:57:32;78433.91;;;-147.20;75.45
55038;BME280;40937;53.594;10.034;2022-11-15T08:00:18;78437.97;;;-147.20;75.51
55038;BME280;40937;53.594;10.034;2022-11-15T08:03:04;78442.00;;;-147.20;75.69
55038;BME280;40937;53.594;10.034;2022-11-15T08:05:51;78446.03;;;-147.20;75.77
55038;BME280;40937;53.594;10.034;2022-11-15T08:08:36;78439.97;;;-147.20;75.72
55038;BME280;40937;53.594;10.034;2022-11-15T08:11:22;78433.91;;;-147.20;75.58
55038;BME280;40937;53.594;10.034;2022-11-15T08:14:08;78427.88;;;-147.20;75.13
55038;BME280;40937;53.594;10.034;2022-11-15T08:16:54;78435.94;;;-147.20;75.35
55038;BME280;40937;53.594;10.034;2022-11-15T08:19:39;78439.97;;;-147.20;75.49
55038;BME280;40937;53.594;10.034;2022-11-15T08:22:24;78446.03;;;-147.20;75.67
55038;BME280;40937;53.594;10.034;2022-11-15T08:25:10;78439.97;;;-147.20;75.61
55038;BME280;40937;53.594;10.034;2022-11-15T08:27:58;78439.97;;;-147.20;75.69
55038;BME280;40937;53.594;10.034;2022-11-15T08:30:43;78439.97;;;-147.20;75.67
55038;BME280;40937;53.594;10.034;2022-11-15T08:33:30;78433.91;;;-147.20;75.40
55038;BME280;40937;53.594;10.034;2022-11-15T08:36:16;78433.91;;;-147.20;75.27
55038;BME280;40937;53.594;10.034;2022-11-15T08:39:02;78431.91;;;-147.20;75.35
55038;BME280;40937;53.594;10.034;2022-11-15T08:41:48;78433.91;;;-147.20;75.10
55038;BME280;40937;53.594;10.034;2022-11-15T08:44:35;78415.75;;;-147.20;74.75
55038;BME280;40937;53.594;10.034;2022-11-15T08:47:20;78435.94;;;-147.20;75.27
55038;BME280;40937;53.594;10.034;2022-11-15T08:50:06;78442.00;;;-147.20;75.50
55038;BME280;40937;53.594;10.034;2022-11-15T08:52:51;78450.06;;;-147.20;75.45
55038;BME280;40937;53.594;10.034;2022-11-15T08:55:38;78460.19;;;-147.20;75.96
55038;BME280;40937;53.594;10.034;2022-11-15T08:58:23;78460.19;;;-147.20;75.84
55038;BME280;40937;53.594;10.034;2022-11-15T09:01:16;78446.03;;;-147.20;75.96
55038;BME280;40937;53.594;10.034;2022-11-15T09:04:02;78429.88;;;-147.20;75.71
55038;BME280;40937;53.594;10.034;2022-11-15T09:06:48;78431.91;;;-147.20;75.66
55038;BME280;40937;53.594;10.034;2022-11-15T09:09:33;78431.91;;;-147.20;75.77
55038;BME280;40937;53.594;10.034;2022-11-15T09:12:19;78419.78;;;-147.20;75.75
55038;BME280;40937;53.594;10.034;2022-11-15T09:15:05;78429.88;;;-147.20;75.79
55038;BME280;40937;53.594;10.034;2022-11-15T09:17:52;78427.88;;;-147.20;76.08
55038;BME280;40937;53.594;10.034;2022-11-15T09:20:38;78423.81;;;-147.20;75.88
55038;BME280;40937;53.594;10.034;2022-11-15T09:23:23;78423.81;;;-147.20;75.99
55038;BME280;40937;53.594;10.034;2022-11-15T09:26:08;78419.78;;;-147.20;75.96
55038;BME280;40937;53.594;10.034;2022-11-15T09:28:54;78425.84;;;-147.20;76.08
55038;BME280;40937;53.594;10.034;2022-11-15T09:31:39;78421.81;;;-147.20;75.94
55038;BME280;40937;53.594;10.034;2022-11-15T09:34:26;78415.75;;;-147.20;76.11
55038;BME280;40937;53.594;10.034;2022-11-15T09:37:11;78417.75;;;-147.20;76.11
55038;BME280;40937;53.594;10.034;2022-11-15T09:39:57;78389.50;;;-147.20;75.53
55038;BME280;40937;53.594;10.034;2022-11-15T09:42:53;78409.69;;;-147.20;75.93
55038;BME280;40937;53.594;10.034;2022-11-15T09:46:00;78387.47;;;-147.20;75.67
55038;BME280;40937;53.594;10.034;2022-11-15T09:48:51;78397.56;;;-147.20;75.93
55038;BME280;40937;53.594;10.034;2022-11-15T09:51:50;78405.66;;;-147.20;76.17
55038;BME280;40937;53.594;10.034;2022-11-15T09:54:28;78397.56;;;-147.20;75.93
55038;BME280;40937;53.594;10.034;2022-11-15T09:56:56;78403.63;;;-147.20;76.08
55038;BME280;40937;53.594;10.034;2022-11-15T09:59:36;78405.66;;;-147.20;76.42
55038;BME280;40937;53.594;10.034;2022-11-15T10:02:16;78399.59;;;-147.20;76.35
55038;BME280;40937;53.594;10.034;2022-11-15T10:04:45;78397.56;;;-147.20;76.47
55038;BME280;40937;53.594;10.034;2022-11-15T10:07:17;78389.50;;;-147.20;76.40
55038;BME280;40937;53.594;10.034;2022-11-15T10:09:49;78371.31;;;-147.20;75.90
55038;BME280;40937;53.594;10.034;2022-11-15T10:12:18;78373.34;;;-147.20;76.30
55038;BME280;40937;53.594;10.034;2022-11-15T10:14:46;78365.25;;;-147.20;76.43
55038;BME280;40937;53.594;10.034;2022-11-15T10:17:36;78371.31;;;-147.20;76.75
55038;BME280;40937;53.594;10.034;2022-11-15T10:20:12;78357.19;;;-147.20;76.72
55038;BME280;40937;53.594;10.034;2022-11-15T10:22:46;78357.19;;;-147.20;76.55
55038;BME280;40937;53.594;10.034;2022-11-15T10:25:19;78341.03;;;-147.20;76.68
55038;BME280;40937;53.594;10.034;2022-11-15T10:27:52;78334.97;;;-147.20;76.75
55038;BME280;40937;53.594;10.034;2022-11-15T10:30:33;78312.75;;;-147.20;76.22
55038;BME280;40937;53.594;10.034;2022-11-15T10:33:11;78306.72;;;-147.20;76.27
55038;BME280;40937;53.594;10.034;2022-11-15T10:35:39;78302.66;;;-147.20;76.29
55038;BME280;40937;53.594;10.034;2022-11-15T10:38:09;78300.66;;;-147.20;76.50
55038;BME280;40937;53.594;10.034;2022-11-15T10:40:38;78288.53;;;-147.20;76.55
55038;BME280;40937;53.594;10.034;2022-11-15T10:43:14;78284.50;;;-147.20;76.70
55038;BME280;40937;53.594;10.034;2022-11-15T10:45:42;78266.31;;;-147.20;76.67
55038;BME280;40937;53.594;10.034;2022-11-15T10:48:23;78278.44;;;-147.20;76.67
55038;BME280;40937;53.594;10.034;2022-11-15T10:50:51;78272.38;;;-147.20;76.91
55038;BME280;40937;53.594;10.034;2022-11-15T10:53:23;78258.25;;;-147.20;76.97
55038;BME280;40937;53.594;10.034;2022-11-15T10:55:53;78250.16;;;-147.20;76.94
55038;BME280;40937;53.594;10.034;2022-11-15T10:58:29;78248.16;;;-147.20;77.08
55038;BME280;40937;53.594;10.034;2022-11-15T11:01:08;78244.13;;;-147.20;77.29
55038;BME280;40937;53.594;10.034;2022-11-15T11:03:37;78234.03;;;-147.20;77.29
55038;BME280;40937;53.594;10.034;2022-11-15T11:06:07;78229.97;;;-147.20;77.18
55038;BME280;40937;53.594;10.034;2022-11-15T11:08:35;78221.91;;;-147.20;77.12
55038;BME280;40937;53.594;10.034;2022-11-15T11:11:03;78219.88;;;-147.20;77.25
55038;BME280;40937;53.594;10.034;2022-11-15T11:13:33;78213.81;;;-147.20;77.14
55038;BME280;40937;53.594;10.034;2022-11-15T11:16:15;78195.66;;;-147.20;76.93
55038;BME280;40937;53.594;10.034;2022-11-15T11:18:51;78181.53;;;-147.20;76.40
55038;BME280;40937;53.594;10.034;2022-11-15T11:21:25;78185.56;;;-147.20;76.67
55038;BME280;40937;53.594;10.034;2022-11-15T11:23:59;78179.50;;;-147.20;76.74
55038;BME280;40937;53.594;10.034;2022-11-15T11:26:37;78175.47;;;-147.20;76.66
55038;BME280;40937;53.594;10.034;2022-11-15T11:29:20;78175.47;;;-147.20;76.81
55038;BME280;40937;53.594;10.034;2022-11-15T11:31:57;78167.38;;;-147.20;76.65
55038;BME280;40937;53.594;10.034;2022-11-15T11:34:36;78157.28;;;-147.20;76.36
55038;BME280;40937;53.594;10.034;2022-11-15T11:37:14;78147.19;;;-147.20;76.30
55038;BME280;40937;53.594;10.034;2022-11-15T11:39:56;78147.19;;;-147.20;76.18
55038;BME280;40937;53.594;10.034;2022-11-15T11:42:35;78129.03;;;-147.20;75.41
55038;BME280;40937;53.594;10.034;2022-11-15T11:47:46;78102.78;;;-147.20;74.51
55038;BME280;40937;53.594;10.034;2022-11-15T11:50:17;78106.81;;;-147.20;74.69
55038;BME280;40937;53.594;10.034;2022-11-15T11:52:54;78098.72;;;-147.20;74.72
55038;BME280;40937;53.594;10.034;2022-11-15T11:55:27;78092.69;;;-147.20;74.61
55038;BME280;40937;53.594;10.034;2022-11-15T11:58:03;78102.78;;;-147.20;74.73
55038;BME280;40937;53.594;10.034;2022-11-15T12:00:33;78096.72;;;-147.20;74.84
55038;BME280;40937;53.594;10.034;2022-11-15T12:03:07;78104.78;;;-147.20;75.07
55038;BME280;40937;53.594;10.034;2022-11-15T12:05:39;78090.66;;;-147.20;74.94
55038;BME280;40937;53.594;10.034;2022-11-15T12:08:21;78086.63;;;-147.20;74.66
55038;BME280;40937;53.594;10.034;2022-11-15T12:10:55;78088.63;;;-147.20;74.99
55038;BME280;40937;53.594;10.034;2022-11-15T12:13:26;78074.50;;;-147.20;74.64
55038;BME280;40937;53.594;10.034;2022-11-15T12:16:12;78060.38;;;-147.20;74.35
55038;BME280;40937;53.594;10.034;2022-11-15T12:18:46;78068.44;;;-147.20;74.57
55038;BME280;40937;53.594;10.034;2022-11-15T12:21:16;78060.38;;;-147.20;74.46
55038;BME280;40937;53.594;10.034;2022-11-15T12:23:49;78052.28;;;-147.20;74.35
55038;BME280;40937;53.594;10.034;2022-11-15T12:26:20;78052.28;;;-147.20;74.57
55038;BME280;40937;53.594;10.034;2022-11-15T12:28:52;78056.34;;;-147.20;74.73
55038;BME280;40937;53.594;10.034;2022-11-15T12:31:23;78054.31;;;-147.20;74.73
55038;BME280;40937;53.594;10.034;2022-11-15T12:33:55;78052.28;;;-147.20;74.79
55038;BME280;40937;53.594;10.034;2022-11-15T12:36:34;78040.19;;;-147.20;74.69
55038;BME280;40937;53.594;10.034;2022-11-15T12:39:03;78044.22;;;-147.20;74.69
55038;BME280;40937;53.594;10.034;2022-11-15T12:41:33;78030.09;;;-147.20;74.46
55038;BME280;40937;53.594;10.034;2022-11-15T12:44:01;78028.06;;;-147.20;74.35
55038;BME280;40937;53.594;10.034;2022-11-15T12:46:59;78026.03;;;-147.20;74.41
55038;BME280;40937;53.594;10.034;2022-11-15T12:49:44;78017.97;;;-147.20;74.06
55038;BME280;40937;53.594;10.034;2022-11-15T12:52:11;78017.97;;;-147.20;73.99
55038;BME280;40937;53.594;10.034;2022-11-15T12:57:46;77985.66;;;-147.20;73.54
55038;BME280;40937;53.594;10.034;2022-11-15T13:00:42;77991.72;;;-147.20;73.43
55038;BME280;40937;53.594;10.034;2022-11-15T13:03:27;77985.66;;;-147.20;73.22
55038;BME280;40937;53.594;10.034;2022-11-15T13:06:06;77979.59;;;-147.20;73.30
55038;BME280;40937;53.594;10.034;2022-11-15T13:08:50;77965.47;;;-147.20;72.86
55038;BME280;40937;53.594;10.034;2022-11-15T13:11:46;77971.53;;;-147.20;73.14
55038;BME280;40937;53.594;10.034;2022-11-15T13:14:43;77971.53;;;-147.20;73.35
55038;BME280;40937;53.594;10.034;2022-11-15T13:17:23;77965.47;;;-147.20;73.15
55038;BME280;40937;53.594;10.034;2022-11-15T13:19:54;77963.44;;;-147.20;73.40
55038;BME280;40937;53.594;10.034;2022-11-15T13:22:24;77963.44;;;-147.20;73.54
55038;BME280;40937;53.594;10.034;2022-11-15T13:25:16;77929.13;;;-147.20;72.79
55038;BME280;40937;53.594;10.034;2022-11-15T13:27:46;77937.19;;;-147.20;72.89
55038;BME280;40937;53.594;10.034;2022-11-15T13:30:20;77935.19;;;-147.20;73.03
55038;BME280;40937;53.594;10.034;2022-11-15T13:32:48;77931.16;;;-147.20;72.85
55038;BME280;40937;53.594;10.034;2022-11-15T13:35:20;77923.06;;;-147.20;72.88
55038;BME280;40937;53.594;10.034;2022-11-15T13:37:48;77910.97;;;-147.20;72.33
55038;BME280;40937;53.594;10.034;2022-11-15T13:40:21;77910.97;;;-147.20;72.68
55038;BME280;40937;53.594;10.034;2022-11-15T13:42:48;77902.88;;;-147.20;72.19
55038;BME280;40937;53.594;10.034;2022-11-15T13:45:18;77902.88;;;-147.20;72.55
55038;BME280;40937;53.594;10.034;2022-11-15T13:47:44;77898.84;;;-147.20;72.56
55038;BME280;40937;53.594;10.034;2022-11-15T13:50:18;77900.88;;;-147.20;72.50
55038;BME280;40937;53.594;10.034;2022-11-15T13:52:47;77894.81;;;-147.20;72.49
55038;BME280;40937;53.594;10.034;2022-11-15T13:55:17;77882.69;;;-147.20;72.08
55038;BME280;40937;53.594;10.034;2022-11-15T13:57:47;77878.66;;;-147.20;72.03
55038;BME280;40937;53.594;10.034;2022-11-15T14:00:32;77872.59;;;-147.20;72.08
55038;BME280;40937;53.594;10.034;2022-11-15T14:03:06;77884.72;;;-147.20;72.03